Time;durP1;ratioP1;P1;durP2;ratioP2;P2;SDS_P1;SDS_P2;PMS_P1;PMS_P2;Temp;Humidity;BMP_temperature;BMP_pressure;BME280_temperature;BME280_humidity;BME280_pressure;Samples;Min_cycle;Max_cycle;Signal;HPM_P1;HPM_P2
2022/11/07 00:01:07;;;;;;;1.10;0.50;;;20.60;59.60;;;;;;6159263;28;20048;-35
2022/11/07 00:04:09;;;;;;;0.70;0.50;;;21.20;59.50;;;;;;6145885;28;20041;-35
2022/11/07 00:07:11;;;;;;;1.42;0.38;;;20.60;59.30;;;;;;6179122;28;20251;-35
2022/11/07 00:10:13;;;;;;;1.27;0.50;;;21.10;59.60;;;;;;6207732;28;20037;-35
2022/11/07 00:13:14;;;;;;;0.88;0.40;;;21.00;59.40;;;;;;6204946;28;20148;-34
2022/11/07 00:16:20;;;;;;;0.73;0.30;;;20.90;59.30;;;;;;6209398;28;20055;-35
2022/11/07 00:19:21;;;;;;;0.63;0.40;;;20.70;59.00;;;;;;6202046;28;20041;-34
2022/11/07 00:22:23;;;;;;;;;;;21.00;59.20;;;;;;6208381;28;20072;-35
2022/11/07 00:25:24;;;;;;;1.17;0.47;;;20.70;59.20;;;;;;6208277;28;19924;-35
2022/11/07 00:28:26;;;;;;;0.80;0.43;;;21.10;59.20;;;;;;6211395;28;20127;-35
2022/11/07 00:31:31;;;;;;;1.20;0.40;;;20.90;59.10;;;;;;6209230;28;20039;-34
2022/11/07 00:34:34;;;;;;;0.50;0.20;;;20.70;58.80;;;;;;6208606;28;20689;-35
2022/11/07 00:37:36;;;;;;;1.50;0.60;;;21.00;59.00;;;;;;6207532;28;20041;-35
2022/11/07 00:40:37;;;;;;;0.85;0.40;;;20.60;58.80;;;;;;6207062;28;20156;-35
2022/11/07 00:43:39;;;;;;;0.70;0.40;;;20.80;58.90;;;;;;6207104;28;20033;-34
2022/11/07 00:46:41;;;;;;;1.10;0.35;;;20.70;58.60;;;;;;6182993;28;20068;-34
2022/11/07 00:49:42;;;;;;;1.15;0.60;;;20.80;58.80;;;;;;6206767;28;20109;-34
2022/11/07 00:52:44;;;;;;;0.40;0.30;;;20.60;58.60;;;;;;6203996;28;20040;-35
2022/11/07 00:55:46;;;;;;;0.75;0.50;;;21.00;59.00;;;;;;6197380;28;20914;-35
2022/11/07 00:58:48;;;;;;;0.75;0.25;;;21.00;58.90;;;;;;6207265;28;20146;-35
2022/11/07 01:01:52;;;;;;;0.55;0.20;;;20.70;58.80;;;;;;6197132;28;20045;-34
2022/11/07 01:08:11;;;;;;;0.82;0.32;;;20.90;58.80;;;;;;6195660;28;20101;-35
2022/11/07 01:11:12;;;;;;;0.70;0.30;;;20.80;58.90;;;;;;6214642;28;20145;-35
2022/11/07 01:14:17;;;;;;;0.70;0.40;;;21.10;59.10;;;;;;6207901;28;20051;-35
2022/11/07 01:17:22;;;;;;;1.13;0.35;;;20.50;58.70;;;;;;6190344;28;20077;-35
2022/11/07 01:20:23;;;;;;;1.20;0.50;;;20.90;59.00;;;;;;6207945;28;20127;-35
2022/11/07 01:23:25;;;;;;;1.13;0.40;;;20.90;59.10;;;;;;6208359;28;20861;-35
2022/11/07 01:26:27;;;;;;;0.70;0.40;;;20.90;59.20;;;;;;6200160;28;20100;-34
2022/11/07 01:29:28;;;;;;;;;;;20.80;59.10;;;;;;6214038;28;20215;-35
2022/11/07 01:32:33;;;;;;;0.60;0.47;;;20.60;59.30;;;;;;6213176;28;19994;-35
2022/11/07 01:35:35;;;;;;;0.65;0.25;;;20.50;59.00;;;;;;6213035;28;20045;-34
2022/11/07 01:38:39;;;;;;;0.60;0.30;;;20.60;59.00;;;;;;6196329;28;20041;-35
2022/11/07 01:41:41;;;;;;;0.88;0.35;;;20.70;59.10;;;;;;6212520;28;20120;-34
2022/11/07 01:44:50;;;;;;;0.93;0.30;;;20.70;59.10;;;;;;6203273;28;20130;-34
2022/11/07 01:47:59;;;;;;;0.40;0.40;;;20.50;58.90;;;;;;6202503;28;20163;-35
2022/11/07 01:51:01;;;;;;;0.65;0.30;;;20.50;59.00;;;;;;6195151;28;20076;-34
2022/11/07 01:54:04;;;;;;;0.60;0.30;;;20.70;59.20;;;;;;6209959;28;20029;-34
2022/11/07 01:57:11;;;;;;;0.60;0.20;;;20.90;59.20;;;;;;6212149;28;20041;-35
2022/11/07 02:00:14;;;;;;;1.20;0.30;;;20.90;59.20;;;;;;6212106;28;20161;-35
2022/11/07 02:03:20;;;;;;;0.50;0.20;;;20.60;59.10;;;;;;6198004;28;20136;-35
2022/11/07 02:06:27;;;;;;;0.85;0.40;;;21.10;59.30;;;;;;6212680;28;20339;-34
2022/11/07 02:09:29;;;;;;;0.70;0.45;;;20.80;59.20;;;;;;6190687;28;20140;-34
2022/11/07 02:12:30;;;;;;;0.63;0.30;;;20.90;59.20;;;;;;6215640;28;20079;-34
2022/11/07 02:15:32;;;;;;;;;;;21.00;59.40;;;;;;6210553;28;20561;-34
2022/11/07 02:18:35;;;;;;;;;;;20.90;59.40;;;;;;6206881;28;19931;-35
2022/11/07 02:21:44;;;;;;;0.35;0.28;;;21.10;59.50;;;;;;6203811;28;20302;-34
2022/11/07 02:24:50;;;;;;;0.47;0.30;;;20.90;59.30;;;;;;6210224;28;20072;-34
2022/11/07 02:27:55;;;;;;;0.30;0.20;;;21.20;59.50;;;;;;6211995;28;20081;-35
2022/11/07 02:30:56;;;;;;;0.40;0.22;;;21.00;59.50;;;;;;6196880;28;20317;-34
2022/11/07 02:33:58;;;;;;;;;;;20.60;59.30;;;;;;6212524;28;20106;-35
2022/11/07 02:37:02;;;;;;;0.40;0.20;;;20.90;59.60;;;;;;6213807;28;20174;-34
2022/11/07 02:40:08;;;;;;;0.77;0.35;;;20.90;59.40;;;;;;6197507;28;20047;-35
2022/11/07 02:43:12;;;;;;;0.70;0.20;;;20.40;59.20;;;;;;6198282;28;20985;-36
2022/11/07 02:46:14;;;;;;;0.57;0.30;;;20.90;59.40;;;;;;6200912;28;20351;-35
2022/11/07 02:49:17;;;;;;;0.68;0.28;;;20.80;59.40;;;;;;6212260;28;20065;-35
2022/11/07 02:52:18;;;;;;;0.40;0.30;;;21.00;59.50;;;;;;6212391;28;20335;-35
2022/11/07 02:55:20;;;;;;;0.25;0.10;;;20.80;59.50;;;;;;6212821;28;20080;-35
2022/11/07 02:58:22;;;;;;;0.20;0.10;;;21.00;59.50;;;;;;6209228;28;20053;-35
2022/11/07 03:01:24;;;;;;;0.55;0.10;;;20.90;59.50;;;;;;6210010;28;20048;-35
2022/11/07 03:04:25;;;;;;;0.73;0.30;;;21.00;59.50;;;;;;6212132;28;20080;-36
2022/11/07 03:07:27;;;;;;;0.43;0.20;;;20.60;59.30;;;;;;6212608;28;20215;-36
2022/11/07 03:10:29;;;;;;;;;;;21.00;59.50;;;;;;6209653;28;20375;-35
2022/11/07 03:13:30;;;;;;;;;;;20.40;59.40;;;;;;6215053;28;19967;-35
2022/11/07 03:16:31;;;;;;;0.43;0.13;;;20.60;59.60;;;;;;6211551;28;19925;-35
2022/11/07 03:19:33;;;;;;;0.32;0.13;;;21.10;59.60;;;;;;6213529;28;20115;-35
2022/11/07 03:22:34;;;;;;;0.55;0.25;;;21.00;59.60;;;;;;6214800;28;20170;-35
2022/11/07 03:25:36;;;;;;;0.40;0.30;;;21.00;59.70;;;;;;6211342;28;20886;-35
2022/11/07 03:28:38;;;;;;;0.68;0.28;;;20.50;59.50;;;;;;6210815;28;20167;-35
2022/11/07 03:31:39;;;;;;;0.50;0.20;;;21.00;59.70;;;;;;6209172;28;20084;-35
2022/11/07 03:34:41;;;;;;;;;;;20.70;59.70;;;;;;6209274;28;20043;-35
2022/11/07 03:37:44;;;;;;;0.73;0.20;;;21.00;60.10;;;;;;6209159;28;19996;-35
2022/11/07 03:40:46;;;;;;;0.20;0.20;;;21.00;59.80;;;;;;6210029;28;20638;-35
2022/11/07 03:43:48;;;;;;;0.28;0.20;;;21.20;60.00;;;;;;6207193;28;20048;-35
2022/11/07 03:46:49;;;;;;;0.70;0.13;;;20.70;60.00;;;;;;6210945;28;20285;-35
2022/11/07 03:49:51;;;;;;;;;;;21.10;60.20;;;;;;6209109;28;20055;-35
2022/11/07 03:52:53;;;;;;;0.68;0.30;;;21.00;60.30;;;;;;6206728;28;20159;-35
2022/11/07 03:55:55;;;;;;;0.20;0.20;;;20.60;60.00;;;;;;6209638;28;20611;-35
2022/11/07 03:58:57;;;;;;;0.30;0.20;;;20.60;60.00;;;;;;6210379;28;20335;-35
2022/11/07 04:01:58;;;;;;;;;;;21.00;60.40;;;;;;6210358;28;20448;-35
2022/11/07 04:05:00;;;;;;;0.57;0.20;;;20.70;60.50;;;;;;6209314;28;20283;-35
2022/11/07 04:08:01;;;;;;;0.60;0.30;;;20.80;61.00;;;;;;6214281;28;20139;-35
2022/11/07 04:11:03;;;;;;;0.20;0.20;;;21.10;60.50;;;;;;6214056;28;20041;-35
2022/11/07 04:17:21;;;;;;;0.68;0.20;;;21.10;60.70;;;;;;6209214;28;20603;-36
2022/11/07 04:20:23;;;;;;;0.38;0.25;;;21.10;60.70;;;;;;6207492;28;20052;-35
2022/11/07 04:23:24;;;;;;;0.50;0.25;;;20.60;60.50;;;;;;6215972;28;20071;-35
2022/11/07 04:29:41;;;;;;;0.52;0.52;;;20.50;60.70;;;;;;6215575;28;20114;-35
2022/11/07 04:32:43;;;;;;;0.68;0.20;;;20.50;60.60;;;;;;6215453;28;20045;-35
2022/11/07 04:35:45;;;;;;;0.95;0.45;;;21.00;60.90;;;;;;6217548;28;20048;-36
2022/11/07 04:38:46;;;;;;;0.43;0.13;;;20.60;60.80;;;;;;6216776;28;20040;-35
2022/11/07 04:41:48;;;;;;;;;;;21.00;61.00;;;;;;6213391;28;20080;-35
2022/11/07 04:44:50;;;;;;;0.52;0.20;;;21.10;61.20;;;;;;6217121;28;19929;-35
2022/11/07 04:47:51;;;;;;;;;;;20.60;60.80;;;;;;6218013;28;20053;-35
2022/11/07 04:50:56;;;;;;;0.52;0.28;;;20.80;61.10;;;;;;6212270;28;20826;-34
2022/11/07 04:53:57;;;;;;;0.65;0.40;;;20.90;61.00;;;;;;6208166;28;20183;-35
2022/11/07 04:56:59;;;;;;;0.80;0.20;;;20.80;60.80;;;;;;6214746;28;21064;-34
2022/11/07 05:00:03;;;;;;;1.65;0.30;;;20.60;60.80;;;;;;6211730;28;20423;-35
2022/11/07 05:03:04;;;;;;;0.65;0.40;;;21.00;60.90;;;;;;6211109;28;20143;-34
2022/11/07 05:06:06;;;;;;;0.75;0.43;;;20.50;61.20;;;;;;6209693;28;20402;-35
2022/11/07 05:09:08;;;;;;;;;;;20.60;60.60;;;;;;6209745;28;20403;-35
2022/11/07 05:12:10;;;;;;;1.55;0.32;;;20.70;60.80;;;;;;6208817;28;20807;-35
2022/11/07 05:15:11;;;;;;;0.60;0.35;;;20.80;60.70;;;;;;6210223;28;20135;-35
2022/11/07 05:18:13;;;;;;;;;;;21.10;60.80;;;;;;6203963;28;20367;-35
2022/11/07 05:21:17;;;;;;;0.60;0.30;;;21.00;61.00;;;;;;6202392;28;20421;-34
2022/11/07 05:24:19;;;;;;;0.70;0.30;;;21.00;60.90;;;;;;6207202;28;20053;-34
2022/11/07 05:27:21;;;;;;;1.80;0.75;;;20.90;60.80;;;;;;6206257;28;20346;-35
2022/11/07 05:30:23;;;;;;;1.73;0.57;;;20.80;60.60;;;;;;6203833;28;20065;-35
2022/11/07 05:33:24;;;;;;;1.42;0.40;;;20.60;60.50;;;;;;6206164;28;20091;-34
2022/11/07 05:36:26;;;;;;;0.93;0.50;;;20.60;60.50;;;;;;6188824;28;20922;-34
2022/11/07 05:39:27;;;;;;;0.90;0.30;;;20.90;60.90;;;;;;6205505;28;20516;-35
2022/11/07 05:42:29;;;;;;;0.80;0.50;;;21.10;61.10;;;;;;6206824;28;20041;-34
2022/11/07 05:45:32;;;;;;;0.80;0.43;;;21.00;61.00;;;;;;6202949;28;20041;-35
2022/11/07 05:48:34;;;;;;;1.95;0.50;;;21.00;60.90;;;;;;6186941;28;20258;-35
2022/11/07 05:51:35;;;;;;;1.52;0.70;;;20.60;60.90;;;;;;6189440;28;20910;-35
2022/11/07 05:54:37;;;;;;;1.60;0.63;;;20.90;61.10;;;;;;6203159;28;20391;-35
2022/11/07 05:57:39;;;;;;;;;;;21.00;61.10;;;;;;6194271;28;20152;-35
2022/11/07 06:00:40;;;;;;;;;;;20.60;61.10;;;;;;6212373;28;19936;-36
2022/11/07 06:03:42;;;;;;;2.38;0.95;;;20.90;61.20;;;;;;6212652;28;20029;-35
2022/11/07 06:06:43;;;;;;;;;;;20.60;61.00;;;;;;6212370;28;20807;-35
2022/11/07 06:09:45;;;;;;;3.30;1.13;;;21.10;61.60;;;;;;6213595;28;20720;-35
2022/11/07 06:12:47;;;;;;;;;;;20.90;61.10;;;;;;6214614;28;20159;-35
2022/11/07 06:15:51;;;;;;;2.83;1.40;;;20.50;61.20;;;;;;6211791;28;20035;-35
2022/11/07 06:18:52;;;;;;;2.72;1.40;;;21.30;61.50;;;;;;6207849;28;20064;-35
2022/11/07 06:21:54;;;;;;;;;;;20.60;61.10;;;;;;6211388;28;20252;-35
2022/11/07 06:24:56;;;;;;;3.25;1.30;;;21.00;61.50;;;;;;6213555;28;19972;-34
2022/11/07 06:27:59;;;;;;;3.00;1.40;;;20.40;60.90;;;;;;6213296;28;20869;-35
2022/11/07 06:31:01;;;;;;;2.17;1.00;;;20.60;61.00;;;;;;6211050;28;20911;-35
2022/11/07 06:34:03;;;;;;;2.80;1.02;;;21.00;61.10;;;;;;6196004;28;20045;-35
2022/11/07 06:37:04;;;;;;;;;;;20.90;61.30;;;;;;6213964;28;20826;-35
2022/11/07 06:40:06;;;;;;;2.92;0.85;;;20.80;61.30;;;;;;6205487;28;19921;-35
2022/11/07 06:43:10;;;;;;;2.42;0.80;;;20.90;61.10;;;;;;6195767;28;20082;-35
2022/11/07 06:46:13;;;;;;;2.08;0.80;;;21.00;61.10;;;;;;6178427;28;20043;-35
2022/11/07 06:49:15;;;;;;;1.85;0.80;;;20.50;60.90;;;;;;6189307;28;20057;-35
2022/11/07 06:52:19;;;;;;;;;;;20.80;61.10;;;;;;6188488;28;20703;-35
2022/11/07 06:55:21;;;;;;;2.20;0.50;;;20.50;61.10;;;;;;6190501;28;19929;-35
2022/11/07 06:58:25;;;;;;;;;;;20.80;61.00;;;;;;6193738;28;20114;-36
2022/11/07 07:01:27;;;;;;;1.27;0.45;;;21.30;61.50;;;;;;6198780;28;20710;-35
2022/11/07 07:04:29;;;;;;;1.30;0.60;;;20.40;60.70;;;;;;6188680;28;20037;-35
2022/11/07 07:07:30;;;;;;;;;;;21.00;61.80;;;;;;6183349;28;21434;-35
2022/11/07 07:10:35;;;;;;;1.17;0.40;;;20.70;61.10;;;;;;6183203;28;20047;-35
2022/11/07 07:13:38;;;;;;;1.05;0.55;;;20.70;60.80;;;;;;6167256;28;21047;-35
2022/11/07 07:16:39;;;;;;;1.65;0.40;;;21.00;60.80;;;;;;6147255;28;20152;-35
2022/11/07 07:19:40;;;;;;;;;;;21.00;60.80;;;;;;6179464;28;20848;-35
2022/11/07 07:22:43;;;;;;;0.75;0.32;;;21.20;61.10;;;;;;6170741;28;19945;-35
2022/11/07 07:25:45;;;;;;;0.93;0.50;;;21.00;60.70;;;;;;6167011;28;20107;-35
2022/11/07 07:28:48;;;;;;;0.82;0.28;;;20.80;60.60;;;;;;6154072;28;20045;-35
2022/11/07 07:31:49;;;;;;;1.17;0.38;;;20.70;60.20;;;;;;6148119;28;20043;-35
2022/11/07 07:34:51;;;;;;;0.93;0.47;;;21.00;60.70;;;;;;6139821;28;20045;-36
2022/11/07 07:37:56;;;;;;;0.95;0.50;;;20.70;60.50;;;;;;6124988;23;20894;-35
2022/11/07 07:40:58;;;;;;;1.08;0.40;;;21.10;60.60;;;;;;6119895;28;20118;-36
2022/11/07 07:44:01;;;;;;;0.35;0.25;;;21.00;60.50;;;;;;6103024;28;20037;-35
2022/11/07 07:47:02;;;;;;;1.15;0.50;;;20.90;60.40;;;;;;6098598;28;21032;-36
2022/11/07 07:50:14;;;;;;;0.68;0.32;;;21.10;60.60;;;;;;6093079;28;20048;-35
2022/11/07 07:53:19;;;;;;;1.38;0.47;;;21.10;60.10;;;;;;6076416;28;20115;-35
2022/11/07 07:56:20;;;;;;;0.90;0.30;;;20.60;60.30;;;;;;6031298;28;20706;-36
2022/11/07 07:59:22;;;;;;;;;;;21.20;60.70;;;;;;6066572;28;22122;-36
2022/11/07 08:02:24;;;;;;;1.00;0.30;;;21.20;60.60;;;;;;6024278;28;19928;-36
2022/11/07 08:05:25;;;;;;;0.70;0.40;;;21.10;60.60;;;;;;6029633;28;20041;-36
2022/11/07 08:08:27;;;;;;;1.00;0.45;;;21.10;60.60;;;;;;6032848;28;20099;-35
2022/11/07 08:11:31;;;;;;;1.17;0.80;;;21.00;60.40;;;;;;5996232;28;20037;-36
2022/11/07 08:14:38;;;;;;;3.72;0.80;;;21.20;60.40;;;;;;6029910;28;20045;-36
2022/11/07 08:17:41;;;;;;;1.20;0.60;;;20.90;60.00;;;;;;6011701;28;20076;-35
2022/11/07 08:20:42;;;;;;;0.55;0.40;;;20.80;60.40;;;;;;6001014;28;20108;-35
2022/11/07 08:23:48;;;;;;;;;;;21.20;60.50;;;;;;5992003;28;20071;-35
2022/11/07 08:26:49;;;;;;;0.80;0.40;;;20.50;60.50;;;;;;6010466;28;21183;-35
2022/11/07 08:29:52;;;;;;;0.75;0.40;;;20.90;60.50;;;;;;5946650;28;20752;-35
2022/11/07 08:32:55;;;;;;;1.13;0.45;;;21.10;60.50;;;;;;5917593;28;20053;-37
2022/11/07 08:35:59;;;;;;;0.57;0.40;;;21.10;60.40;;;;;;5877327;28;28903;-36
2022/11/07 08:39:00;;;;;;;0.57;0.30;;;20.90;60.10;;;;;;5821212;28;25563;-35
2022/11/07 08:42:03;;;;;;;;;;;20.70;60.20;;;;;;5906320;28;29598;-35
2022/11/07 08:45:08;;;;;;;0.73;0.40;;;21.40;60.80;;;;;;5917290;28;19937;-36
2022/11/07 08:48:13;;;;;;;0.80;0.30;;;21.40;60.10;;;;;;5915764;28;20049;-35
2022/11/07 08:51:16;;;;;;;5.22;0.50;;;20.90;59.80;;;;;;5894062;28;20045;-36
2022/11/07 08:54:20;;;;;;;2.55;0.47;;;20.70;60.00;;;;;;5903433;28;22128;-36
2022/11/07 08:57:21;;;;;;;0.93;0.50;;;21.30;60.60;;;;;;5884163;28;25399;-36
2022/11/07 09:00:23;;;;;;;0.40;0.20;;;21.40;60.60;;;;;;5864784;28;21821;-36
2022/11/07 09:03:26;;;;;;;0.70;0.20;;;21.30;60.60;;;;;;5866179;28;21305;-36
2022/11/07 09:06:47;;;;;;;1.27;0.40;;;21.50;60.40;;;;;;5872093;28;20071;-36
2022/11/07 09:09:52;;;;;;;0.90;0.38;;;21.30;60.20;;;;;;5882402;28;25492;-36
2022/11/07 09:12:54;;;;;;;0.60;0.30;;;21.60;60.30;;;;;;5890282;28;20055;-36
2022/11/07 09:15:58;;;;;;;0.80;0.30;;;20.90;60.00;;;;;;5931669;28;20096;-36
2022/11/07 09:18:59;;;;;;;1.33;0.40;;;21.30;60.00;;;;;;5916776;28;21440;-36
2022/11/07 09:22:01;;;;;;;0.80;0.40;;;21.30;60.00;;;;;;5936797;28;20053;-35
2022/11/07 09:25:04;;;;;;;0.50;0.28;;;21.60;60.00;;;;;;5932700;28;20438;-34
2022/11/07 09:28:06;;;;;;;0.43;0.28;;;21.70;60.10;;;;;;5914551;28;20049;-34
2022/11/07 09:31:10;;;;;;;0.90;0.50;;;21.50;59.90;;;;;;5919553;28;20049;-34
2022/11/07 09:34:13;;;;;;;1.25;0.73;;;21.50;59.80;;;;;;5912217;28;20662;-34
2022/11/07 09:37:15;;;;;;;;;;;21.20;59.90;;;;;;5907902;28;20199;-35
2022/11/07 09:40:25;;;;;;;0.80;0.60;;;21.60;60.00;;;;;;5944275;28;21220;-35
2022/11/07 09:43:45;;;;;;;1.15;0.60;;;21.20;59.90;;;;;;5938363;28;20037;-35
2022/11/07 09:46:56;;;;;;;1.33;0.63;;;21.60;60.20;;;;;;5938939;28;20041;-34
2022/11/07 09:50:02;;;;;;;1.20;0.40;;;21.10;60.00;;;;;;5896431;28;25188;-35
2022/11/07 09:53:12;;;;;;;0.85;0.32;;;21.40;60.10;;;;;;5910295;28;20811;-34
2022/11/07 09:56:16;;;;;;;0.90;0.50;;;21.30;60.10;;;;;;5903828;28;22342;-34
2022/11/07 09:59:23;;;;;;;1.00;0.40;;;21.60;60.40;;;;;;5914150;28;20083;-34
2022/11/07 10:02:31;;;;;;;0.73;0.38;;;21.50;60.30;;;;;;5832859;28;22526;-34
2022/11/07 10:05:42;;;;;;;0.80;0.38;;;21.70;60.50;;;;;;5818547;28;20075;-34
2022/11/07 10:08:52;;;;;;;0.73;0.38;;;21.20;60.00;;;;;;5810040;28;35150;-35
2022/11/07 10:12:03;;;;;;;1.63;0.40;;;21.60;60.30;;;;;;5838040;28;20826;-34
2022/11/07 10:15:18;;;;;;;1.08;0.43;;;21.30;60.10;;;;;;5889557;28;24143;-34
2022/11/07 10:18:33;;;;;;;0.63;0.40;;;21.60;60.30;;;;;;5891915;28;23297;-34
2022/11/07 10:21:43;;;;;;;0.80;0.30;;;21.70;60.30;;;;;;5920529;28;23005;-35
2022/11/07 10:24:56;;;;;;;1.50;0.40;;;21.90;60.40;;;;;;5934082;28;20660;-34
2022/11/07 10:28:12;;;;;;;1.30;0.47;;;21.60;60.20;;;;;;5920006;28;20037;-34
2022/11/07 10:31:15;;;;;;;1.20;0.40;;;21.60;60.20;;;;;;5885610;28;30456;-35
2022/11/07 10:34:31;;;;;;;1.13;0.55;;;21.80;60.50;;;;;;5899467;28;20099;-34
2022/11/07 10:37:33;;;;;;;1.20;0.55;;;21.80;60.20;;;;;;5895654;28;20682;-35
2022/11/07 10:40:39;;;;;;;0.90;0.57;;;21.50;60.00;;;;;;5888548;28;20037;-34
2022/11/07 10:43:44;;;;;;;1.13;0.73;;;21.70;60.10;;;;;;5897060;28;23137;-35
2022/11/07 10:46:46;;;;;;;1.30;0.40;;;21.90;60.20;;;;;;5876974;28;24779;-35
2022/11/07 10:49:58;;;;;;;0.40;0.40;;;21.40;60.00;;;;;;5902475;28;20068;-35
2022/11/07 10:53:04;;;;;;;1.52;0.50;;;21.70;60.20;;;;;;5840073;28;20051;-35
2022/11/07 10:56:10;;;;;;;1.08;0.45;;;21.80;60.30;;;;;;5872329;28;24285;-35
2022/11/07 10:59:13;;;;;;;1.05;0.50;;;21.50;60.00;;;;;;5900722;28;23086;-35
2022/11/07 11:02:19;;;;;;;1.67;0.60;;;21.80;59.70;;;;;;5891511;28;22270;-35
2022/11/07 11:05:25;;;;;;;1.00;0.75;;;21.80;60.10;;;;;;5862114;28;23860;-35
2022/11/07 11:08:30;;;;;;;1.20;0.30;;;22.00;60.20;;;;;;5838905;28;30639;-35
2022/11/07 11:11:34;;;;;;;0.70;0.35;;;22.00;60.10;;;;;;5890249;28;20048;-35
2022/11/07 11:14:38;;;;;;;1.80;0.57;;;21.90;60.00;;;;;;5888891;28;20061;-35
2022/11/07 11:17:41;;;;;;;0.60;0.40;;;21.80;59.80;;;;;;5896177;28;20085;-35
2022/11/07 11:20:45;;;;;;;0.47;0.25;;;22.20;59.90;;;;;;5990264;28;20045;-35
2022/11/07 11:23:48;;;;;;;1.00;0.50;;;21.90;59.60;;;;;;5945589;28;20049;-35
2022/11/07 11:26:51;;;;;;;1.27;0.30;;;22.00;59.60;;;;;;5991728;28;20547;-35
2022/11/07 11:29:59;;;;;;;1.38;0.52;;;21.70;59.30;;;;;;6021981;28;20041;-35
2022/11/07 11:33:07;;;;;;;0.40;0.30;;;21.80;59.20;;;;;;5999252;28;20041;-35
2022/11/07 11:36:17;;;;;;;1.10;0.50;;;21.80;59.10;;;;;;6028269;28;20112;-35
2022/11/07 11:39:27;;;;;;;1.00;0.38;;;21.80;59.00;;;;;;6054953;28;20041;-35
2022/11/07 11:42:35;;;;;;;1.40;0.40;;;21.90;59.00;;;;;;6062632;28;20055;-35
2022/11/07 11:45:59;;;;;;;0.70;0.40;;;21.50;58.70;;;;;;6061266;28;20122;-34
2022/11/07 11:49:11;;;;;;;1.35;0.60;;;21.80;58.80;;;;;;6077106;28;20179;-35
2022/11/07 11:52:20;;;;;;;1.23;0.43;;;21.90;58.80;;;;;;6054654;28;21176;-35
2022/11/07 11:55:25;;;;;;;0.93;0.50;;;21.90;58.80;;;;;;6054661;28;21529;-35
2022/11/07 11:58:39;;;;;;;1.95;0.60;;;21.50;58.40;;;;;;6038729;28;20041;-35
2022/11/07 12:01:50;;;;;;;1.63;0.40;;;21.80;58.60;;;;;;6065308;28;20045;-35
2022/11/07 12:05:00;;;;;;;1.02;0.50;;;21.90;58.10;;;;;;6046478;28;20138;-35
2022/11/07 12:08:15;;;;;;;1.02;0.50;;;21.80;58.40;;;;;;6049483;28;20053;-35
2022/11/07 12:11:25;;;;;;;1.05;0.52;;;22.00;58.20;;;;;;6064974;28;20045;-35
2022/11/07 12:14:44;;;;;;;0.98;0.50;;;21.80;58.10;;;;;;6018045;28;20044;-35
2022/11/07 12:17:51;;;;;;;1.27;0.50;;;21.90;58.50;;;;;;5962549;28;21257;-35
2022/11/07 12:21:04;;;;;;;0.95;0.52;;;21.80;58.00;;;;;;5995777;28;21435;-35
2022/11/07 12:24:22;;;;;;;1.05;0.40;;;21.80;57.70;;;;;;6033496;28;20122;-35
2022/11/07 12:27:33;;;;;;;1.92;0.47;;;21.50;57.40;;;;;;6048391;28;20654;-35
2022/11/07 12:30:47;;;;;;;1.35;0.50;;;21.80;57.50;;;;;;6021062;28;20149;-35
2022/11/07 12:33:54;;;;;;;0.82;0.38;;;21.90;58.10;;;;;;6051256;28;21444;-35
2022/11/07 12:37:11;;;;;;;1.27;0.40;;;21.80;57.30;;;;;;6036610;28;20052;-36
2022/11/07 12:40:28;;;;;;;1.42;0.70;;;21.80;57.20;;;;;;6077818;28;20052;-35
2022/11/07 12:43:42;;;;;;;1.20;0.38;;;21.80;57.20;;;;;;6064115;28;20040;-35
2022/11/07 12:46:47;;;;;;;0.90;0.35;;;21.50;57.10;;;;;;6057342;28;21179;-35
2022/11/07 12:50:03;;;;;;;0.82;0.38;;;21.90;57.30;;;;;;6047167;28;20041;-36
2022/11/07 12:53:15;;;;;;;1.67;0.70;;;21.80;57.10;;;;;;6065293;28;20582;-37
2022/11/07 12:56:23;;;;;;;1.50;0.40;;;21.50;56.80;;;;;;6053868;28;20072;-35
2022/11/07 12:59:27;;;;;;;0.93;0.60;;;21.70;56.90;;;;;;5991115;28;20037;-36
2022/11/07 13:02:42;;;;;;;1.10;0.40;;;21.90;56.90;;;;;;5909761;28;21276;-35
2022/11/07 13:05:59;;;;;;;2.47;0.47;;;22.40;56.90;;;;;;5889787;28;20162;-35
2022/11/07 13:09:12;;;;;;;0.75;0.32;;;21.90;56.80;;;;;;5906129;28;20045;-35
2022/11/07 13:12:25;;;;;;;1.52;0.52;;;22.10;56.70;;;;;;5894519;28;30041;-36
2022/11/07 13:15:28;;;;;;;2.70;0.60;;;22.00;56.60;;;;;;5891282;28;20044;-36
2022/11/07 13:18:39;;;;;;;;;;;21.80;56.70;;;;;;5903083;28;20157;-36
2022/11/07 13:21:43;;;;;;;1.20;0.32;;;22.10;56.60;;;;;;5905207;28;19929;-35
2022/11/07 13:24:52;;;;;;;1.02;0.22;;;22.20;56.70;;;;;;5888455;28;20045;-35
2022/11/07 13:28:05;;;;;;;1.80;0.47;;;22.20;56.50;;;;;;5905061;28;20045;-38
2022/11/07 13:31:25;;;;;;;1.42;0.60;;;22.10;56.40;;;;;;5902813;28;20091;-36
2022/11/07 13:34:27;;;;;;;1.45;0.70;;;22.00;56.40;;;;;;5933172;28;20052;-35
2022/11/07 13:37:31;;;;;;;1.42;0.52;;;22.50;58.70;;;;;;5928923;28;20107;-35
2022/11/07 13:40:35;;;;;;;2.17;0.80;;;21.80;58.00;;;;;;5936292;28;20053;-35
2022/11/07 13:43:40;;;;;;;1.42;0.50;;;22.20;58.10;;;;;;5960086;28;20051;-36
2022/11/07 13:46:46;;;;;;;1.50;0.45;;;22.50;58.20;;;;;;5924261;28;20743;-35
2022/11/07 13:49:49;;;;;;;1.90;0.82;;;22.60;58.10;;;;;;5912916;28;23026;-35
2022/11/07 13:52:59;;;;;;;0.90;0.32;;;21.90;57.50;;;;;;5902705;28;20053;-35
2022/11/07 13:56:07;;;;;;;1.35;0.60;;;22.40;57.70;;;;;;5917284;28;20680;-36
2022/11/07 13:59:20;;;;;;;1.13;0.55;;;22.20;57.40;;;;;;5871742;28;22319;-36
2022/11/07 14:02:24;;;;;;;1.85;0.65;;;22.50;57.50;;;;;;5881593;28;20053;-36
2022/11/07 14:05:29;;;;;;;1.70;0.57;;;22.60;57.10;;;;;;5875268;28;20151;-35
2022/11/07 14:08:34;;;;;;;1.60;0.50;;;22.60;57.10;;;;;;5937479;28;20099;-36
2022/11/07 14:11:36;;;;;;;2.65;0.70;;;22.60;56.90;;;;;;5959738;28;20038;-35
2022/11/07 14:14:39;;;;;;;2.58;0.80;;;22.40;56.70;;;;;;5903727;28;22716;-35
2022/11/07 14:17:43;;;;;;;2.58;0.75;;;22.70;56.40;;;;;;5949911;28;20180;-35
2022/11/07 14:20:49;;;;;;;3.50;0.95;;;22.40;56.60;;;;;;5978455;28;20052;-35
2022/11/07 14:23:55;;;;;;;2.33;0.93;;;22.30;56.10;;;;;;5996042;28;21226;-36
2022/11/07 14:26:58;;;;;;;3.17;1.00;;;22.70;56.40;;;;;;5969242;28;20163;-35
2022/11/07 14:30:01;;;;;;;5.03;1.15;;;22.70;56.10;;;;;;5976631;28;20162;-35
2022/11/07 14:33:05;;;;;;;3.95;1.30;;;22.90;56.10;;;;;;5910459;28;28254;-36
2022/11/07 14:36:12;;;;;;;3.30;1.00;;;22.70;56.10;;;;;;5919000;28;20041;-37
2022/11/07 14:39:16;;;;;;;2.60;1.00;;;22.90;55.90;;;;;;5931240;28;21734;-37
2022/11/07 14:42:20;;;;;;;5.50;1.60;;;22.90;55.90;;;;;;5964076;28;20168;-36
2022/11/07 14:45:23;;;;;;;5.30;1.17;;;22.80;55.70;;;;;;5928956;28;23650;-37
2022/11/07 14:48:48;;;;;;;5.18;1.50;;;22.80;55.80;;;;;;5917421;28;20142;-37
2022/11/07 14:51:51;;;;;;;4.25;1.55;;;22.40;55.50;;;;;;5937182;28;20725;-37
2022/11/07 14:55:03;;;;;;;4.13;1.10;;;22.50;55.60;;;;;;5926339;28;20041;-37
2022/11/07 14:58:06;;;;;;;5.75;1.58;;;23.00;55.70;;;;;;5911193;28;20041;-38
2022/11/07 15:01:12;;;;;;;5.00;1.63;;;22.80;55.60;;;;;;5873315;28;32411;-35
2022/11/07 15:04:16;;;;;;;6.85;1.98;;;22.70;55.50;;;;;;5812940;28;31543;-35
2022/11/07 15:07:22;;;;;;;7.43;1.50;;;22.80;56.20;;;;;;5870220;28;21681;-35
2022/11/07 15:10:31;;;;;;;4.63;1.38;;;22.40;55.00;;;;;;5813899;28;23430;-35
2022/11/07 15:13:33;;;;;;;8.38;2.58;;;22.90;55.30;;;;;;5855682;28;20041;-35
2022/11/07 15:16:38;;;;;;;9.57;2.78;;;22.90;55.40;;;;;;5882938;28;20051;-35
2022/11/07 15:19:40;;;;;;;5.53;1.50;;;22.90;55.40;;;;;;5901276;28;20049;-35
2022/11/07 15:22:43;;;;;;;6.38;1.67;;;22.80;54.80;;;;;;5840894;28;20041;-35
2022/11/07 15:25:53;;;;;;;8.77;2.20;;;22.60;55.30;;;;;;5824272;28;30097;-35
2022/11/07 15:29:00;;;;;;;7.53;2.22;;;22.60;55.00;;;;;;5858972;28;20044;-35
2022/11/07 15:32:11;;;;;;;5.28;1.58;;;22.80;55.10;;;;;;5878762;28;23655;-35
2022/11/07 15:35:15;;;;;;;7.65;2.08;;;22.50;54.90;;;;;;5858278;28;20045;-35
2022/11/07 15:38:36;;;;;;;7.85;1.98;;;22.60;54.80;;;;;;5896917;28;21076;-35
2022/11/07 15:41:38;;;;;;;6.45;1.80;;;22.90;54.90;;;;;;5864645;28;20134;-35
2022/11/07 15:44:40;;;;;;;7.13;1.60;;;23.30;55.10;;;;;;5861873;28;20094;-35
2022/11/07 15:47:43;;;;;;;4.32;1.63;;;22.70;54.70;;;;;;5867101;28;20057;-35
2022/11/07 15:50:46;;;;;;;7.03;1.90;;;22.50;54.40;;;;;;5819429;28;20278;-35
2022/11/07 15:53:47;;;;;;;4.65;1.48;;;22.70;54.40;;;;;;5819171;28;20250;-35
2022/11/07 15:56:49;;;;;;;5.85;1.50;;;23.10;54.70;;;;;;5858033;28;22148;-35
2022/11/07 15:59:58;;;;;;;3.80;1.05;;;23.00;54.40;;;;;;5921589;28;20084;-35
2022/11/07 16:03:00;;;;;;;5.15;1.27;;;23.10;54.40;;;;;;5890191;28;20171;-35
2022/11/07 16:06:02;;;;;;;4.45;1.45;;;23.20;54.10;;;;;;5888806;28;20126;-35
2022/11/07 16:09:09;;;;;;;5.50;1.58;;;22.90;53.90;;;;;;5893024;28;24336;-36
2022/11/07 16:12:12;;;;;;;3.05;1.15;;;23.20;53.90;;;;;;5872608;28;32908;-36
2022/11/07 16:15:15;;;;;;;5.57;1.70;;;22.70;53.50;;;;;;5887606;28;20084;-36
2022/11/07 16:18:19;;;;;;;2.28;0.88;;;23.30;53.80;;;;;;5897098;28;20923;-36
2022/11/07 16:21:25;;;;;;;5.10;1.40;;;23.60;53.70;;;;;;5874292;28;20823;-36